sensor_id;sensor_type;location;lat;lon;timestamp;pressure;altitude;pressure_sealevel;temperature;humidity
64211;BME280;50528;48.514;14.394;2023-08-08T00:00:26;94040.44;;;10.67;86.11
64211;BME280;50528;48.514;14.394;2023-08-08T00:01:19;94038.91;;;10.65;86.35
64211;BME280;50528;48.514;14.394;2023-08-08T00:01:53;94043.66;;;10.63;86.36
64211;BME280;50528;48.514;14.394;2023-08-08T00:02:26;94042.95;;;10.64;86.42
64211;BME280;50528;48.514;14.394;2023-08-08T00:03:01;94040.86;;;10.70;86.55
64211;BME280;50528;48.514;14.394;2023-08-08T00:03:35;94034.24;;;10.71;86.41
64211;BME280;50528;48.514;14.394;2023-08-08T00:04:09;94033.83;;;10.71;86.56
64211;BME280;50528;48.514;14.394;2023-08-08T00:04:43;94033.42;;;10.74;86.49
64211;BME280;50528;48.514;14.394;2023-08-08T00:05:16;94033.41;;;10.72;86.56
64211;BME280;50528;48.514;14.394;2023-08-08T00:05:50;94031.52;;;10.71;86.77
64211;BME280;50528;48.514;14.394;2023-08-08T00:06:23;94031.15;;;10.71;86.80
64211;BME280;50528;48.514;14.394;2023-08-08T00:06:57;94032.33;;;10.74;86.96
64211;BME280;50528;48.514;14.394;2023-08-08T00:07:30;94034.61;;;10.78;86.77
64211;BME280;50528;48.514;14.394;2023-08-08T00:08:04;94032.08;;;10.74;86.83
64211;BME280;50528;48.514;14.394;2023-08-08T00:08:37;94033.88;;;10.75;86.94
64211;BME280;50528;48.514;14.394;2023-08-08T00:09:11;94032.53;;;10.76;87.00
64211;BME280;50528;48.514;14.394;2023-08-08T00:09:44;94030.50;;;10.79;87.05
64211;BME280;50528;48.514;14.394;2023-08-08T00:10:17;94031.02;;;10.79;86.91
64211;BME280;50528;48.514;14.394;2023-08-08T00:10:51;94029.29;;;10.79;86.89
64211;BME280;50528;48.514;14.394;2023-08-08T00:11:25;94027.30;;;10.79;87.02
64211;BME280;50528;48.514;14.394;2023-08-08T00:11:58;94027.19;;;10.82;86.90
64211;BME280;50528;48.514;14.394;2023-08-08T00:12:32;94025.75;;;10.81;86.80
64211;BME280;50528;48.514;14.394;2023-08-08T00:13:06;94026.53;;;10.81;86.83
64211;BME280;50528;48.514;14.394;2023-08-08T00:13:39;94025.41;;;10.80;86.88
64211;BME280;50528;48.514;14.394;2023-08-08T00:14:16;94027.08;;;10.81;86.63
64211;BME280;50528;48.514;14.394;2023-08-08T00:14:53;94026.41;;;10.79;86.70
64211;BME280;50528;48.514;14.394;2023-08-08T00:15:29;94026.50;;;10.77;86.88
64211;BME280;50528;48.514;14.394;2023-08-08T00:16:02;94029.59;;;10.77;86.74
64211;BME280;50528;48.514;14.394;2023-08-08T00:16:36;94023.95;;;10.76;86.69
64211;BME280;50528;48.514;14.394;2023-08-08T00:17:12;94027.02;;;10.77;86.77
64211;BME280;50528;48.514;14.394;2023-08-08T00:17:45;94023.38;;;10.76;86.75
64211;BME280;50528;48.514;14.394;2023-08-08T00:18:19;94026.08;;;10.78;86.67
64211;BME280;50528;48.514;14.394;2023-08-08T00:18:52;94023.29;;;10.77;86.72
64211;BME280;50528;48.514;14.394;2023-08-08T00:19:27;94023.77;;;10.75;86.75
64211;BME280;50528;48.514;14.394;2023-08-08T00:20:00;94021.11;;;10.75;86.86
64211;BME280;50528;48.514;14.394;2023-08-08T00:20:34;94017.90;;;10.76;86.79
64211;BME280;50528;48.514;14.394;2023-08-08T00:21:07;94015.75;;;10.76;86.84
64211;BME280;50528;48.514;14.394;2023-08-08T00:21:40;94015.57;;;10.75;86.82
64211;BME280;50528;48.514;14.394;2023-08-08T00:22:14;94018.05;;;10.75;86.93
64211;BME280;50528;48.514;14.394;2023-08-08T00:22:48;94020.61;;;10.82;86.66
64211;BME280;50528;48.514;14.394;2023-08-08T00:23:21;94020.94;;;10.79;86.85
64211;BME280;50528;48.514;14.394;2023-08-08T00:23:54;94022.33;;;10.81;86.61
64211;BME280;50528;48.514;14.394;2023-08-08T00:24:28;94018.97;;;10.78;86.74
64211;BME280;50528;48.514;14.394;2023-08-08T00:25:01;94021.39;;;10.77;86.72
64211;BME280;50528;48.514;14.394;2023-08-08T00:25:35;94024.92;;;10.77;86.74
64211;BME280;50528;48.514;14.394;2023-08-08T00:26:10;94025.34;;;10.77;86.84
64211;BME280;50528;48.514;14.394;2023-08-08T00:26:43;94026.28;;;10.77;86.73
64211;BME280;50528;48.514;14.394;2023-08-08T00:27:17;94025.86;;;10.77;86.84
64211;BME280;50528;48.514;14.394;2023-08-08T00:27:50;94023.84;;;10.80;86.86
64211;BME280;50528;48.514;14.394;2023-08-08T00:28:24;94025.77;;;10.79;86.80
64211;BME280;50528;48.514;14.394;2023-08-08T00:28:58;94026.42;;;10.80;86.90
64211;BME280;50528;48.514;14.394;2023-08-08T00:29:31;94024.23;;;10.81;86.77
64211;BME280;50528;48.514;14.394;2023-08-08T00:30:05;94023.88;;;10.78;86.84
64211;BME280;50528;48.514;14.394;2023-08-08T00:30:40;94024.71;;;10.78;86.77
64211;BME280;50528;48.514;14.394;2023-08-08T00:31:13;94023.06;;;10.76;86.87
64211;BME280;50528;48.514;14.394;2023-08-08T00:31:50;94022.75;;;10.76;86.90
64211;BME280;50528;48.514;14.394;2023-08-08T00:32:23;94022.05;;;10.76;86.99
64211;BME280;50528;48.514;14.394;2023-08-08T00:32:56;94022.65;;;10.77;87.07
64211;BME280;50528;48.514;14.394;2023-08-08T00:33:30;94021.25;;;10.79;86.99
64211;BME280;50528;48.514;14.394;2023-08-08T00:34:03;94019.05;;;10.80;87.15
64211;BME280;50528;48.514;14.394;2023-08-08T00:34:37;94017.58;;;10.83;86.98
64211;BME280;50528;48.514;14.394;2023-08-08T00:35:10;94020.42;;;10.83;87.07
64211;BME280;50528;48.514;14.394;2023-08-08T00:35:44;94021.87;;;10.81;87.24
64211;BME280;50528;48.514;14.394;2023-08-08T00:36:18;94021.04;;;10.82;87.07
64211;BME280;50528;48.514;14.394;2023-08-08T00:36:51;94021.38;;;10.80;87.12
64211;BME280;50528;48.514;14.394;2023-08-08T00:37:24;94020.00;;;10.80;87.10
64211;BME280;50528;48.514;14.394;2023-08-08T00:37:57;94019.29;;;10.78;87.15
64211;BME280;50528;48.514;14.394;2023-08-08T00:38:31;94018.65;;;10.85;87.30
64211;BME280;50528;48.514;14.394;2023-08-08T00:39:04;94015.70;;;10.86;87.09
64211;BME280;50528;48.514;14.394;2023-08-08T00:39:37;94018.16;;;10.83;87.06
64211;BME280;50528;48.514;14.394;2023-08-08T00:40:12;94020.98;;;10.81;87.19
64211;BME280;50528;48.514;14.394;2023-08-08T00:40:45;94018.05;;;10.80;87.14
64211;BME280;50528;48.514;14.394;2023-08-08T00:41:19;94015.20;;;10.79;87.22
64211;BME280;50528;48.514;14.394;2023-08-08T00:41:52;94018.04;;;10.79;87.13
64211;BME280;50528;48.514;14.394;2023-08-08T00:42:25;94016.83;;;10.78;87.11
64211;BME280;50528;48.514;14.394;2023-08-08T00:42:59;94016.73;;;10.78;87.13
64211;BME280;50528;48.514;14.394;2023-08-08T00:43:33;94017.56;;;10.78;87.08
64211;BME280;50528;48.514;14.394;2023-08-08T00:44:07;94019.92;;;10.78;87.08
64211;BME280;50528;48.514;14.394;2023-08-08T00:44:40;94019.39;;;10.77;86.96
64211;BME280;50528;48.514;14.394;2023-08-08T00:45:14;94017.45;;;10.79;86.97
64211;BME280;50528;48.514;14.394;2023-08-08T00:45:48;94020.55;;;10.78;86.92
64211;BME280;50528;48.514;14.394;2023-08-08T00:46:22;94018.25;;;10.78;86.90
64211;BME280;50528;48.514;14.394;2023-08-08T00:46:59;94020.39;;;10.76;86.98
64211;BME280;50528;48.514;14.394;2023-08-08T00:47:34;94020.69;;;10.75;86.86
64211;BME280;50528;48.514;14.394;2023-08-08T00:48:08;94015.75;;;10.76;86.92
64211;BME280;50528;48.514;14.394;2023-08-08T00:48:42;94018.60;;;10.76;86.82
64211;BME280;50528;48.514;14.394;2023-08-08T00:49:15;94017.55;;;10.76;86.76
64211;BME280;50528;48.514;14.394;2023-08-08T00:49:49;94021.36;;;10.75;86.80
64211;BME280;50528;48.514;14.394;2023-08-08T00:50:22;94019.16;;;10.72;86.79
64211;BME280;50528;48.514;14.394;2023-08-08T00:50:56;94017.11;;;10.72;86.98
64211;BME280;50528;48.514;14.394;2023-08-08T00:51:32;94020.78;;;10.71;86.87
64211;BME280;50528;48.514;14.394;2023-08-08T00:52:06;94017.31;;;10.70;86.98
64211;BME280;50528;48.514;14.394;2023-08-08T00:52:41;94015.11;;;10.71;86.94
64211;BME280;50528;48.514;14.394;2023-08-08T00:53:15;94021.16;;;10.72;86.97
64211;BME280;50528;48.514;14.394;2023-08-08T00:53:49;94021.91;;;10.72;87.06
64211;BME280;50528;48.514;14.394;2023-08-08T00:54:22;94023.52;;;10.72;86.97
64211;BME280;50528;48.514;14.394;2023-08-08T00:54:56;94020.80;;;10.73;86.98
64211;BME280;50528;48.514;14.394;2023-08-08T00:55:30;94022.58;;;10.72;86.97
64211;BME280;50528;48.514;14.394;2023-08-08T00:56:04;94022.58;;;10.72;87.00
64211;BME280;50528;48.514;14.394;2023-08-08T00:56:38;94021.42;;;10.73;87.09
64211;BME280;50528;48.514;14.394;2023-08-08T00:57:11;94022.44;;;10.73;86.98
64211;BME280;50528;48.514;14.394;2023-08-08T00:57:45;94025.48;;;10.72;87.04
64211;BME280;50528;48.514;14.394;2023-08-08T00:58:19;94028.79;;;10.73;87.02
64211;BME280;50528;48.514;14.394;2023-08-08T00:58:53;94026.38;;;10.74;87.04
64211;BME280;50528;48.514;14.394;2023-08-08T00:59:27;94023.42;;;10.72;86.92
64211;BME280;50528;48.514;14.394;2023-08-08T01:00:00;94025.73;;;10.72;86.98
64211;BME280;50528;48.514;14.394;2023-08-08T01:00:34;94022.70;;;10.76;86.94
64211;BME280;50528;48.514;14.394;2023-08-08T01:01:07;94025.29;;;10.77;86.76
64211;BME280;50528;48.514;14.394;2023-08-08T01:01:42;94027.70;;;10.81;86.72
64211;BME280;50528;48.514;14.394;2023-08-08T01:02:16;94022.17;;;10.82;86.68
64211;BME280;50528;48.514;14.394;2023-08-08T01:02:49;94024.33;;;10.84;86.53
64211;BME280;50528;48.514;14.394;2023-08-08T01:03:23;94025.86;;;10.86;86.58
64211;BME280;50528;48.514;14.394;2023-08-08T01:03:56;94024.98;;;10.87;86.46
64211;BME280;50528;48.514;14.394;2023-08-08T01:04:31;94023.66;;;10.82;86.39
64211;BME280;50528;48.514;14.394;2023-08-08T01:05:04;94021.36;;;10.76;86.74
64211;BME280;50528;48.514;14.394;2023-08-08T01:05:43;94022.42;;;10.76;87.00
64211;BME280;50528;48.514;14.394;2023-08-08T01:06:37;94024.23;;;10.76;86.96
64211;BME280;50528;48.514;14.394;2023-08-08T01:07:22;94021.88;;;10.70;87.00
64211;BME280;50528;48.514;14.394;2023-08-08T01:08:07;94024.44;;;10.65;87.17
64211;BME280;50528;48.514;14.394;2023-08-08T01:08:48;94025.93;;;10.63;87.20
64211;BME280;50528;48.514;14.394;2023-08-08T01:09:39;94026.89;;;10.60;87.20
64211;BME280;50528;48.514;14.394;2023-08-08T01:10:18;94024.33;;;10.61;87.45
64211;BME280;50528;48.514;14.394;2023-08-08T01:10:53;94023.06;;;10.68;87.42
64211;BME280;50528;48.514;14.394;2023-08-08T01:11:29;94021.83;;;10.67;87.19
64211;BME280;50528;48.514;14.394;2023-08-08T01:12:08;94025.51;;;10.67;87.32
64211;BME280;50528;48.514;14.394;2023-08-08T01:12:49;94022.56;;;10.67;87.30
64211;BME280;50528;48.514;14.394;2023-08-08T01:13:26;94025.10;;;10.67;87.49
64211;BME280;50528;48.514;14.394;2023-08-08T01:14:02;94024.98;;;10.63;87.50
64211;BME280;50528;48.514;14.394;2023-08-08T01:14:36;94022.43;;;10.61;87.60
64211;BME280;50528;48.514;14.394;2023-08-08T01:15:11;94028.05;;;10.64;87.70
64211;BME280;50528;48.514;14.394;2023-08-08T01:15:46;94028.30;;;10.62;87.57
64211;BME280;50528;48.514;14.394;2023-08-08T01:16:21;94029.36;;;10.64;87.70
64211;BME280;50528;48.514;14.394;2023-08-08T01:16:56;94030.40;;;10.66;87.68
64211;BME280;50528;48.514;14.394;2023-08-08T01:17:32;94029.52;;;10.64;87.59
64211;BME280;50528;48.514;14.394;2023-08-08T01:18:08;94024.66;;;10.62;87.75
64211;BME280;50528;48.514;14.394;2023-08-08T01:18:44;94025.88;;;10.63;87.85
64211;BME280;50528;48.514;14.394;2023-08-08T01:19:25;94025.83;;;10.63;87.81
64211;BME280;50528;48.514;14.394;2023-08-08T01:20:00;94027.02;;;10.65;87.85
64211;BME280;50528;48.514;14.394;2023-08-08T01:20:38;94030.02;;;10.65;87.76
64211;BME280;50528;48.514;14.394;2023-08-08T01:21:14;94030.16;;;10.64;87.71
64211;BME280;50528;48.514;14.394;2023-08-08T01:21:52;94030.08;;;10.62;87.79
64211;BME280;50528;48.514;14.394;2023-08-08T01:22:32;94029.89;;;10.64;87.80
64211;BME280;50528;48.514;14.394;2023-08-08T01:23:19;94031.54;;;10.64;87.82
64211;BME280;50528;48.514;14.394;2023-08-08T01:24:38;94024.04;;;10.65;87.70
64211;BME280;50528;48.514;14.394;2023-08-08T01:25:12;94029.60;;;10.66;87.88
64211;BME280;50528;48.514;14.394;2023-08-08T01:25:47;94029.08;;;10.67;87.81
64211;BME280;50528;48.514;14.394;2023-08-08T01:26:22;94027.14;;;10.70;87.85
64211;BME280;50528;48.514;14.394;2023-08-08T01:26:56;94025.81;;;10.74;87.73
64211;BME280;50528;48.514;14.394;2023-08-08T01:27:30;94024.55;;;10.74;87.71
64211;BME280;50528;48.514;14.394;2023-08-08T01:28:03;94024.58;;;10.75;87.78
64211;BME280;50528;48.514;14.394;2023-08-08T01:28:38;94025.48;;;10.80;87.48
64211;BME280;50528;48.514;14.394;2023-08-08T01:29:12;94023.84;;;10.80;87.63
64211;BME280;50528;48.514;14.394;2023-08-08T01:29:45;94023.77;;;10.79;87.59
64211;BME280;50528;48.514;14.394;2023-08-08T01:30:19;94027.41;;;10.79;87.47
64211;BME280;50528;48.514;14.394;2023-08-08T01:30:53;94030.13;;;10.79;87.60
64211;BME280;50528;48.514;14.394;2023-08-08T01:31:27;94026.65;;;10.79;87.50
64211;BME280;50528;48.514;14.394;2023-08-08T01:32:01;94031.00;;;10.80;87.61
64211;BME280;50528;48.514;14.394;2023-08-08T01:32:35;94028.39;;;10.81;87.55
64211;BME280;50528;48.514;14.394;2023-08-08T01:33:08;94022.10;;;10.82;87.49
64211;BME280;50528;48.514;14.394;2023-08-08T01:33:41;94029.05;;;10.84;87.48
64211;BME280;50528;48.514;14.394;2023-08-08T01:34:15;94029.23;;;10.85;87.40
64211;BME280;50528;48.514;14.394;2023-08-08T01:34:48;94028.38;;;10.85;87.33
64211;BME280;50528;48.514;14.394;2023-08-08T01:35:23;94027.60;;;10.86;87.31
64211;BME280;50528;48.514;14.394;2023-08-08T01:36:02;94027.41;;;10.85;87.27
64211;BME280;50528;48.514;14.394;2023-08-08T01:37:44;94026.08;;;10.86;87.45
64211;BME280;50528;48.514;14.394;2023-08-08T01:38:31;94023.16;;;10.83;87.33
64211;BME280;50528;48.514;14.394;2023-08-08T01:39:06;94028.23;;;10.82;87.49
64211;BME280;50528;48.514;14.394;2023-08-08T01:39:43;94027.78;;;10.82;87.45
64211;BME280;50528;48.514;14.394;2023-08-08T01:40:18;94030.37;;;10.83;87.61
64211;BME280;50528;48.514;14.394;2023-08-08T01:40:54;94027.35;;;10.82;87.56
64211;BME280;50528;48.514;14.394;2023-08-08T01:41:30;94027.34;;;10.82;87.50
64211;BME280;50528;48.514;14.394;2023-08-08T01:42:06;94031.58;;;10.85;87.61
64211;BME280;50528;48.514;14.394;2023-08-08T01:42:40;94033.91;;;10.86;87.57
64211;BME280;50528;48.514;14.394;2023-08-08T01:43:16;94028.60;;;10.86;87.52
64211;BME280;50528;48.514;14.394;2023-08-08T01:43:52;94027.44;;;10.88;87.58
64211;BME280;50528;48.514;14.394;2023-08-08T01:44:26;94024.86;;;10.89;87.57
64211;BME280;50528;48.514;14.394;2023-08-08T01:45:01;94019.02;;;10.90;87.58
64211;BME280;50528;48.514;14.394;2023-08-08T01:45:37;94025.70;;;10.93;87.59
64211;BME280;50528;48.514;14.394;2023-08-08T01:46:11;94021.80;;;10.96;87.37
64211;BME280;50528;48.514;14.394;2023-08-08T01:46:45;94022.29;;;11.01;87.32
64211;BME280;50528;48.514;14.394;2023-08-08T01:47:19;94024.80;;;11.05;87.03
64211;BME280;50528;48.514;14.394;2023-08-08T01:47:52;94020.60;;;11.11;86.71
64211;BME280;50528;48.514;14.394;2023-08-08T01:48:27;94018.38;;;11.09;86.69
64211;BME280;50528;48.514;14.394;2023-08-08T01:50:42;94020.44;;;10.93;87.02
64211;BME280;50528;48.514;14.394;2023-08-08T01:51:15;94024.59;;;10.88;87.02
64211;BME280;50528;48.514;14.394;2023-08-08T01:51:48;94021.16;;;10.88;86.99
64211;BME280;50528;48.514;14.394;2023-08-08T01:52:23;94021.77;;;10.88;86.96
64211;BME280;50528;48.514;14.394;2023-08-08T01:52:57;94022.27;;;10.88;86.97
64211;BME280;50528;48.514;14.394;2023-08-08T01:53:30;94023.84;;;10.87;86.89
64211;BME280;50528;48.514;14.394;2023-08-08T01:54:04;94022.95;;;10.88;86.81
64211;BME280;50528;48.514;14.394;2023-08-08T01:54:37;94024.75;;;10.88;86.89
64211;BME280;50528;48.514;14.394;2023-08-08T01:55:10;94020.14;;;10.86;86.80
64211;BME280;50528;48.514;14.394;2023-08-08T01:55:44;94020.14;;;10.86;86.73
64211;BME280;50528;48.514;14.394;2023-08-08T01:56:17;94022.58;;;10.84;86.80
64211;BME280;50528;48.514;14.394;2023-08-08T01:56:50;94020.20;;;10.87;86.72
64211;BME280;50528;48.514;14.394;2023-08-08T01:57:24;94018.10;;;10.87;86.82
64211;BME280;50528;48.514;14.394;2023-08-08T01:57:58;94016.11;;;10.87;86.70
64211;BME280;50528;48.514;14.394;2023-08-08T01:58:31;94015.89;;;10.87;86.65
64211;BME280;50528;48.514;14.394;2023-08-08T01:59:04;94021.91;;;10.83;86.73
64211;BME280;50528;48.514;14.394;2023-08-08T01:59:38;94022.71;;;10.81;86.72
64211;BME280;50528;48.514;14.394;2023-08-08T02:00:11;94021.77;;;10.78;86.84
64211;BME280;50528;48.514;14.394;2023-08-08T02:00:48;94022.02;;;10.77;86.85
64211;BME280;50528;48.514;14.394;2023-08-08T02:01:22;94025.09;;;10.74;86.84
64211;BME280;50528;48.514;14.394;2023-08-08T02:01:55;94022.46;;;10.74;86.81
64211;BME280;50528;48.514;14.394;2023-08-08T02:02:29;94021.63;;;10.75;86.77
64211;BME280;50528;48.514;14.394;2023-08-08T02:03:03;94021.90;;;10.76;86.72
64211;BME280;50528;48.514;14.394;2023-08-08T02:03:37;94020.16;;;10.76;86.70
64211;BME280;50528;48.514;14.394;2023-08-08T02:04:10;94022.74;;;10.73;86.77
64211;BME280;50528;48.514;14.394;2023-08-08T02:04:44;94020.83;;;10.70;86.73
64211;BME280;50528;48.514;14.394;2023-08-08T02:05:18;94018.82;;;10.70;86.81
64211;BME280;50528;48.514;14.394;2023-08-08T02:05:51;94017.46;;;10.71;86.78
64211;BME280;50528;48.514;14.394;2023-08-08T02:06:25;94019.63;;;10.71;86.84
64211;BME280;50528;48.514;14.394;2023-08-08T02:06:58;94016.41;;;10.69;86.76
64211;BME280;50528;48.514;14.394;2023-08-08T02:07:31;94016.89;;;10.71;86.84
64211;BME280;50528;48.514;14.394;2023-08-08T02:08:06;94014.67;;;10.70;86.60
64211;BME280;50528;48.514;14.394;2023-08-08T02:08:40;94017.48;;;10.68;86.72
64211;BME280;50528;48.514;14.394;2023-08-08T02:09:14;94018.56;;;10.65;86.85
64211;BME280;50528;48.514;14.394;2023-08-08T02:09:53;94016.67;;;10.66;87.02
64211;BME280;50528;48.514;14.394;2023-08-08T02:10:30;94016.50;;;10.65;86.91
64211;BME280;50528;48.514;14.394;2023-08-08T02:11:03;94015.95;;;10.66;87.02
64211;BME280;50528;48.514;14.394;2023-08-08T02:11:36;94014.10;;;10.66;87.06
64211;BME280;50528;48.514;14.394;2023-08-08T02:12:10;94011.88;;;10.64;87.01
64211;BME280;50528;48.514;14.394;2023-08-08T02:12:43;94017.53;;;10.63;87.16
64211;BME280;50528;48.514;14.394;2023-08-08T02:13:16;94016.86;;;10.64;87.05
64211;BME280;50528;48.514;14.394;2023-08-08T02:13:50;94019.08;;;10.64;87.09
64211;BME280;50528;48.514;14.394;2023-08-08T02:14:23;94016.92;;;10.65;87.13
64211;BME280;50528;48.514;14.394;2023-08-08T02:14:57;94017.23;;;10.73;86.96
64211;BME280;50528;48.514;14.394;2023-08-08T02:15:30;94016.38;;;10.68;86.92
64211;BME280;50528;48.514;14.394;2023-08-08T02:16:04;94018.60;;;10.68;86.96
64211;BME280;50528;48.514;14.394;2023-08-08T02:16:37;94017.68;;;10.68;87.04
64211;BME280;50528;48.514;14.394;2023-08-08T02:17:12;94014.80;;;10.67;87.03
64211;BME280;50528;48.514;14.394;2023-08-08T02:17:46;94009.47;;;10.66;87.05
64211;BME280;50528;48.514;14.394;2023-08-08T02:18:20;94009.27;;;10.67;87.13
64211;BME280;50528;48.514;14.394;2023-08-08T02:18:53;94012.23;;;10.68;87.05
64211;BME280;50528;48.514;14.394;2023-08-08T02:19:26;94011.28;;;10.68;87.07
64211;BME280;50528;48.514;14.394;2023-08-08T02:19:59;94016.05;;;10.71;86.93
64211;BME280;50528;48.514;14.394;2023-08-08T02:20:32;94010.94;;;10.69;86.84
64211;BME280;50528;48.514;14.394;2023-08-08T02:21:07;94014.51;;;10.69;86.80
64211;BME280;50528;48.514;14.394;2023-08-08T02:21:40;94013.96;;;10.68;86.81
64211;BME280;50528;48.514;14.394;2023-08-08T02:22:14;94014.11;;;10.67;86.77
64211;BME280;50528;48.514;14.394;2023-08-08T02:22:47;94014.78;;;10.67;86.75
64211;BME280;50528;48.514;14.394;2023-08-08T02:23:20;94013.62;;;10.67;86.77
64211;BME280;50528;48.514;14.394;2023-08-08T02:23:54;94013.20;;;10.67;86.67
64211;BME280;50528;48.514;14.394;2023-08-08T02:24:27;94014.84;;;10.66;86.59
64211;BME280;50528;48.514;14.394;2023-08-08T02:25:01;94013.67;;;10.65;86.64
64211;BME280;50528;48.514;14.394;2023-08-08T02:25:34;94013.89;;;10.65;86.69
64211;BME280;50528;48.514;14.394;2023-08-08T02:26:07;94013.60;;;10.64;86.68
64211;BME280;50528;48.514;14.394;2023-08-08T02:26:41;94012.23;;;10.65;86.64
64211;BME280;50528;48.514;14.394;2023-08-08T02:27:14;94014.79;;;10.67;86.63
64211;BME280;50528;48.514;14.394;2023-08-08T02:27:48;94014.00;;;10.66;86.49
64211;BME280;50528;48.514;14.394;2023-08-08T02:28:21;94017.25;;;10.65;86.55
64211;BME280;50528;48.514;14.394;2023-08-08T02:28:54;94015.79;;;10.66;86.58
64211;BME280;50528;48.514;14.394;2023-08-08T02:29:27;94018.30;;;10.67;86.54
64211;BME280;50528;48.514;14.394;2023-08-08T02:30:03;94017.46;;;10.66;86.56
64211;BME280;50528;48.514;14.394;2023-08-08T02:30:37;94012.86;;;10.64;86.73
64211;BME280;50528;48.514;14.394;2023-08-08T02:31:11;94013.15;;;10.66;86.68
64211;BME280;50528;48.514;14.394;2023-08-08T02:31:44;94015.83;;;10.67;86.54
64211;BME280;50528;48.514;14.394;2023-08-08T02:32:18;94012.40;;;10.65;86.63
64211;BME280;50528;48.514;14.394;2023-08-08T02:32:51;94008.16;;;10.63;86.68
64211;BME280;50528;48.514;14.394;2023-08-08T02:33:25;94010.35;;;10.64;86.65
64211;BME280;50528;48.514;14.394;2023-08-08T02:33:58;94011.33;;;10.64;86.75
64211;BME280;50528;48.514;14.394;2023-08-08T02:34:31;94012.82;;;10.64;86.60
64211;BME280;50528;48.514;14.394;2023-08-08T02:35:05;94011.70;;;10.63;86.65
64211;BME280;50528;48.514;14.394;2023-08-08T02:35:39;94011.05;;;10.63;86.73
64211;BME280;50528;48.514;14.394;2023-08-08T02:36:12;94009.95;;;10.63;86.68
64211;BME280;50528;48.514;14.394;2023-08-08T02:36:46;94009.59;;;10.63;86.66
64211;BME280;50528;48.514;14.394;2023-08-08T02:37:19;94009.48;;;10.63;86.63
64211;BME280;50528;48.514;14.394;2023-08-08T02:37:52;94009.95;;;10.66;86.77
64211;BME280;50528;48.514;14.394;2023-08-08T02:38:26;94010.73;;;10.66;86.61
64211;BME280;50528;48.514;14.394;2023-08-08T02:38:59;94011.23;;;10.64;86.59
64211;BME280;50528;48.514;14.394;2023-08-08T02:39:32;94010.39;;;10.64;86.60
64211;BME280;50528;48.514;14.394;2023-08-08T02:40:07;94012.50;;;10.64;86.70
64211;BME280;50528;48.514;14.394;2023-08-08T02:40:41;94014.12;;;10.64;86.57
64211;BME280;50528;48.514;14.394;2023-08-08T02:41:15;94009.91;;;10.64;86.66
64211;BME280;50528;48.514;14.394;2023-08-08T02:41:49;94010.50;;;10.64;86.55
64211;BME280;50528;48.514;14.394;2023-08-08T02:42:22;94011.13;;;10.64;86.54
64211;BME280;50528;48.514;14.394;2023-08-08T02:42:55;94011.49;;;10.64;86.52
64211;BME280;50528;48.514;14.394;2023-08-08T02:43:29;94010.27;;;10.64;86.51
64211;BME280;50528;48.514;14.394;2023-08-08T02:44:02;94011.90;;;10.63;86.50
64211;BME280;50528;48.514;14.394;2023-08-08T02:44:36;94011.55;;;10.64;86.50
64211;BME280;50528;48.514;14.394;2023-08-08T02:45:10;94014.52;;;10.67;86.10
64211;BME280;50528;48.514;14.394;2023-08-08T02:45:43;94015.22;;;10.64;86.15
64211;BME280;50528;48.514;14.394;2023-08-08T02:46:17;94016.19;;;10.62;86.31
64211;BME280;50528;48.514;14.394;2023-08-08T02:46:51;94016.41;;;10.63;86.37
64211;BME280;50528;48.514;14.394;2023-08-08T02:47:24;94009.55;;;10.61;86.34
64211;BME280;50528;48.514;14.394;2023-08-08T02:47:58;94011.86;;;10.61;86.23
64211;BME280;50528;48.514;14.394;2023-08-08T02:48:31;94011.39;;;10.61;86.36
64211;BME280;50528;48.514;14.394;2023-08-08T02:49:04;94008.81;;;10.61;86.20
64211;BME280;50528;48.514;14.394;2023-08-08T02:49:38;94012.02;;;10.60;86.09
64211;BME280;50528;48.514;14.394;2023-08-08T02:50:12;94013.09;;;10.62;86.01
64211;BME280;50528;48.514;14.394;2023-08-08T02:50:45;94011.41;;;10.62;86.03
64211;BME280;50528;48.514;14.394;2023-08-08T02:51:18;94006.40;;;10.61;85.92
64211;BME280;50528;48.514;14.394;2023-08-08T02:51:51;94009.23;;;10.59;86.08
64211;BME280;50528;48.514;14.394;2023-08-08T02:52:25;94007.42;;;10.59;86.05
64211;BME280;50528;48.514;14.394;2023-08-08T02:52:58;94007.04;;;10.58;85.96
64211;BME280;50528;48.514;14.394;2023-08-08T02:53:33;93996.40;;;10.52;86.06
64211;BME280;50528;48.514;14.394;2023-08-08T02:54:06;94008.16;;;10.58;85.81
64211;BME280;50528;48.514;14.394;2023-08-08T02:54:39;94007.36;;;10.58;85.79
64211;BME280;50528;48.514;14.394;2023-08-08T02:55:13;94005.21;;;10.58;85.82
64211;BME280;50528;48.514;14.394;2023-08-08T02:55:47;94006.86;;;10.57;85.84
64211;BME280;50528;48.514;14.394;2023-08-08T02:56:21;94005.66;;;10.54;85.86
64211;BME280;50528;48.514;14.394;2023-08-08T02:56:54;94004.60;;;10.57;85.86
64211;BME280;50528;48.514;14.394;2023-08-08T02:57:29;94008.48;;;10.55;85.79
64211;BME280;50528;48.514;14.394;2023-08-08T02:58:02;94005.88;;;10.54;85.81
64211;BME280;50528;48.514;14.394;2023-08-08T02:58:36;94000.88;;;10.52;85.83
64211;BME280;50528;48.514;14.394;2023-08-08T02:59:09;94004.64;;;10.55;85.82
64211;BME280;50528;48.514;14.394;2023-08-08T02:59:42;94000.05;;;10.57;85.59
64211;BME280;50528;48.514;14.394;2023-08-08T03:00:16;94005.00;;;10.54;85.73
64211;BME280;50528;48.514;14.394;2023-08-08T03:00:52;94003.96;;;10.52;85.83
64211;BME280;50528;48.514;14.394;2023-08-08T03:01:26;94002.45;;;10.49;85.97
64211;BME280;50528;48.514;14.394;2023-08-08T03:02:00;94004.42;;;10.51;85.97
64211;BME280;50528;48.514;14.394;2023-08-08T03:02:34;94000.98;;;10.50;85.91
64211;BME280;50528;48.514;14.394;2023-08-08T03:03:07;94000.35;;;10.52;85.99
64211;BME280;50528;48.514;14.394;2023-08-08T03:03:42;94003.23;;;10.52;85.87